createdAt,value
2018-06-28T21:04:12.829Z,29.90
2018-06-28T21:06:42.031Z,29.80
2018-06-28T21:09:11.396Z,29.70
2018-06-28T21:11:40.965Z,29.70
2018-06-28T21:14:10.117Z,29.70
2018-06-28T21:16:39.416Z,29.60
2018-06-28T21:19:08.819Z,29.60
2018-06-28T21:21:38.010Z,29.50
2018-06-28T21:24:07.183Z,29.40
2018-06-28T21:26:36.784Z,29.40
2018-06-28T21:29:05.961Z,29.30
2018-06-28T21:31:35.149Z,29.20
2018-06-28T21:34:04.375Z,29.20
2018-06-28T21:36:33.530Z,29.20
2018-06-28T21:39:02.670Z,29.10
2018-06-28T21:41:31.991Z,29.10
2018-06-28T21:44:01.140Z,29.00
2018-06-28T21:46:30.393Z,29.00
2018-06-28T21:48:59.562Z,29.00
2018-06-28T21:51:28.858Z,28.90
2018-06-28T21:53:58.086Z,28.90
2018-06-28T21:56:27.266Z,28.90
2018-06-28T21:58:56.453Z,28.80
2018-06-28T22:01:25.678Z,28.80
2018-06-28T22:03:54.859Z,28.70
2018-06-28T22:06:24.065Z,28.70
2018-06-28T22:08:53.254Z,28.60
2018-06-28T22:11:22.458Z,28.60
2018-06-28T22:13:51.771Z,28.60
2018-06-28T22:16:20.987Z,28.60
2018-06-28T22:18:50.233Z,28.50
2018-06-28T22:21:19.426Z,28.50
2018-06-28T22:23:48.627Z,28.50
2018-06-28T22:26:18.263Z,28.50
2018-06-28T22:28:47.458Z,28.50
2018-06-28T22:31:16.616Z,28.50
2018-06-28T22:33:46.258Z,28.40
2018-06-28T22:36:15.455Z,28.40
2018-06-28T22:38:44.659Z,28.40
2018-06-28T22:41:13.850Z,28.30
2018-06-28T22:43:42.998Z,28.30
2018-06-28T22:46:12.336Z,28.30
2018-06-28T22:48:41.563Z,28.30
2018-06-28T22:51:10.831Z,28.20
2018-06-28T22:53:40.054Z,28.20
2018-06-28T22:56:09.219Z,28.30
2018-06-28T22:58:38.453Z,28.20
2018-06-28T23:01:07.791Z,28.20
2018-06-28T23:03:37.077Z,28.20
2018-06-28T23:06:06.213Z,28.20
2018-06-28T23:08:35.462Z,28.20
2018-06-28T23:11:04.647Z,28.20
2018-06-28T23:13:33.850Z,28.20
2018-06-28T23:16:03.599Z,28.10
2018-06-28T23:18:32.794Z,28.20
2018-06-28T23:21:02.009Z,28.10
2018-06-28T23:23:31.263Z,28.10
2018-06-28T23:26:00.431Z,28.10
2018-06-28T23:28:29.712Z,28.10
2018-06-28T23:30:58.902Z,28.10
2018-06-28T23:33:28.082Z,28.00
2018-06-28T23:35:57.495Z,28.00
2018-06-28T23:38:26.779Z,28.00
2018-06-28T23:40:56.016Z,28.00
2018-06-28T23:43:25.738Z,28.00
2018-06-28T23:45:54.907Z,28.00
2018-06-28T23:48:24.091Z,28.00
2018-06-28T23:50:53.878Z,27.90
2018-06-28T23:53:23.115Z,27.90
2018-06-28T23:55:52.363Z,27.90
2018-06-28T23:58:21.570Z,27.90
